Time;durP1;ratioP1;P1;durP2;ratioP2;P2;SDS_P1;SDS_P2;PMS_P1;PMS_P2;Temp;Humidity;BMP_temperature;BMP_pressure;BME280_temperature;BME280_humidity;BME280_pressure;Samples;Min_cycle;Max_cycle;Signal;HPM_P1;HPM_P2
2023/12/01 00:01:45;;;;;;;20.67;14.85;;;;;;;4.16;100.00;100398.69;5012160;28;20498;-70
2023/12/01 00:04:10;;;;;;;23.27;14.77;;;;;;;3.71;100.00;100337.19;5028261;28;20034;-67
2023/12/01 00:06:37;;;;;;;26.48;15.68;;;;;;;4.17;100.00;100415.75;5010042;28;20492;-64
2023/12/01 00:09:03;;;;;;;33.97;21.33;;;;;;;3.64;100.00;100308.63;5012345;28;20037;-64
2023/12/01 00:11:28;;;;;;;29.75;17.88;;;;;;;4.21;100.00;100410.06;5011357;28;20569;-66
2023/12/01 00:13:54;;;;;;;30.35;17.95;;;;;;;4.00;100.00;100384.09;5009666;28;20045;-69
2023/12/01 00:16:19;;;;;;;33.05;19.88;;;;;;;4.18;100.00;100411.56;5011922;28;20037;-64
2023/12/01 00:18:45;;;;;;;22.95;13.80;;;;;;;4.18;100.00;100391.13;5012054;28;20101;-64
2023/12/01 00:21:10;;;;;;;21.15;13.13;;;;;;;4.19;100.00;100395.44;5012088;28;20033;-66
2023/12/01 00:23:36;;;;;;;23.15;12.55;;;;;;;4.24;100.00;100406.81;5012122;28;20065;-65
2023/12/01 00:26:02;;;;;;;20.92;12.32;;;;;;;4.01;100.00;100377.28;5011987;28;20126;-67
2023/12/01 00:28:27;;;;;;;20.83;12.95;;;;;;;4.00;100.00;100383.19;5011869;28;20061;-67
2023/12/01 00:30:53;;;;;;;21.83;13.98;;;;;;;3.88;100.00;100355.22;5011853;28;20072;-65
2023/12/01 00:33:18;;;;;;;20.45;12.68;;;;;;;4.02;100.00;100382.50;5011738;28;20647;-67
2023/12/01 00:35:44;;;;;;;19.13;13.20;;;;;;;3.60;100.00;100309.22;5011664;28;20038;-67
2023/12/01 00:38:09;;;;;;;21.52;12.95;;;;;;;4.11;100.00;100396.63;5008392;28;20065;-71
2023/12/01 00:40:35;;;;;;;22.98;14.32;;;;;;;4.19;100.00;100403.97;5002414;28;20042;-64
2023/12/01 00:43:01;;;;;;;22.63;13.15;;;;;;;4.21;100.00;100410.06;5011405;28;20034;-64
2023/12/01 00:45:26;;;;;;;22.80;14.27;;;;;;;3.69;100.00;100331.09;5011535;28;20113;-65
2023/12/01 00:47:52;;;;;;;21.33;14.05;;;;;;;4.20;100.00;100404.88;5011677;28;20041;-66
2023/12/01 00:50:18;;;;;;;21.05;13.02;;;;;;;4.25;100.00;100403.47;5011517;28;20030;-66
2023/12/01 00:52:44;;;;;;;19.25;14.02;;;;;;;4.32;100.00;100403.03;5011924;28;20657;-67
2023/12/01 00:55:09;;;;;;;22.63;15.60;;;;;;;4.34;100.00;100400.59;5011459;28;20030;-68
2023/12/01 00:57:35;;;;;;;23.13;14.95;;;;;;;4.25;100.00;100403.47;5010601;28;20034;-64
2023/12/01 01:00:00;;;;;;;40.50;28.10;;;;;;;4.29;100.00;100407.97;5007935;28;20046;-66
2023/12/01 01:02:26;;;;;;;27.02;19.45;;;;;;;4.20;100.00;100387.00;5009103;28;20038;-64
2023/12/01 01:04:51;;;;;;;26.15;16.00;;;;;;;4.32;100.00;100408.16;5010896;28;20029;-67
2023/12/01 01:07:17;;;;;;;21.60;13.93;;;;;;;4.26;100.00;100392.47;5011434;28;20029;-66
2023/12/01 01:09:42;;;;;;;26.23;13.93;;;;;;;3.64;100.00;100309.50;5010689;28;20017;-68
2023/12/01 01:12:08;;;;;;;22.15;14.00;;;;;;;4.22;100.00;100403.28;5011460;28;20029;-67
2023/12/01 01:14:33;;;;;;;23.50;15.40;;;;;;;4.26;100.00;100392.47;5011306;28;20048;-69
2023/12/01 01:16:59;;;;;;;23.60;14.23;;;;;;;4.29;100.00;100402.00;5011259;28;20018;-65
2023/12/01 01:19:25;;;;;;;23.60;14.88;;;;;;;4.36;100.00;100406.66;5011049;28;20026;-64
2023/12/01 01:21:50;;;;;;;27.13;16.27;;;;;;;4.41;100.00;100405.31;5010974;28;20530;-66
2023/12/01 01:24:16;;;;;;;26.30;15.52;;;;;;;4.38;100.00;100400.00;5010788;28;20062;-64
2023/12/01 01:26:41;;;;;;;21.08;14.32;;;;;;;4.21;100.00;100381.97;5010683;28;20060;-64
2023/12/01 01:29:07;;;;;;;25.38;15.25;;;;;;;4.33;100.00;100403.94;5011005;28;20461;-68
2023/12/01 01:31:32;;;;;;;22.58;14.75;;;;;;;4.28;100.00;100396.00;5010768;28;20080;-66
2023/12/01 01:33:58;;;;;;;27.70;15.02;;;;;;;4.10;100.00;100380.44;5010846;28;20496;-65
2023/12/01 01:36:23;;;;;;;23.42;14.68;;;;;;;4.18;100.00;100391.13;5010801;28;20072;-67
2023/12/01 01:38:49;;;;;;;22.60;15.07;;;;;;;3.97;100.00;100349.81;5010953;28;20439;-67
2023/12/01 01:41:15;;;;;;;22.48;14.40;;;;;;;4.20;100.00;100389.53;5010701;28;20029;-70
2023/12/01 01:43:40;;;;;;;24.25;14.40;;;;;;;4.20;100.00;100387.00;5011057;28;20414;-66
2023/12/01 01:46:09;;;;;;;26.27;16.95;;;;;;;4.13;100.00;100385.72;5010530;28;20412;-67
2023/12/01 01:48:35;;;;;;;24.90;15.55;;;;;;;4.12;100.00;100383.94;5010736;28;20026;-67
2023/12/01 01:51:01;;;;;;;22.48;14.32;;;;;;;4.17;100.00;100386.78;5010317;28;20044;-64
2023/12/01 01:53:27;;;;;;;24.40;15.45;;;;;;;4.19;100.00;100380.09;5010683;28;20033;-67
2023/12/01 01:55:57;;;;;;;23.65;15.65;;;;;;;4.21;100.00;100378.50;5008863;28;20029;-65
2023/12/01 01:58:23;;;;;;;24.23;15.50;;;;;;;4.23;100.00;100388.84;5010646;28;20030;-65
2023/12/01 02:00:51;;;;;;;24.92;15.27;;;;;;;3.79;100.00;100298.47;5010800;28;20040;-65
2023/12/01 02:03:18;;;;;;;27.48;15.65;;;;;;;4.24;100.00;100376.16;5010764;28;20094;-64
2023/12/01 02:05:47;;;;;;;24.65;15.00;;;;;;;4.18;100.00;100355.34;5009404;28;20625;-67
2023/12/01 02:08:27;;;;;;;27.93;17.13;;;;;;;4.28;100.00;100367.00;4998811;28;20482;-67
2023/12/01 02:10:57;;;;;;;25.70;15.65;;;;;;;4.23;100.00;100355.63;5008013;28;20303;-65
2023/12/01 02:13:28;;;;;;;25.20;15.98;;;;;;;4.26;100.00;100364.38;5008034;28;20046;-63
2023/12/01 02:15:53;;;;;;;26.42;17.00;;;;;;;4.21;100.00;100381.06;5007904;28;20053;-64
2023/12/01 02:18:22;;;;;;;28.23;19.30;;;;;;;4.16;100.00;100375.69;5008193;28;20034;-64
2023/12/01 02:20:48;;;;;;;28.93;16.80;;;;;;;4.12;100.00;100380.50;5008071;28;20030;-64
2023/12/01 02:23:13;;;;;;;29.95;18.63;;;;;;;4.11;100.00;100381.31;5008103;28;20044;-64
2023/12/01 02:25:39;;;;;;;26.95;15.98;;;;;;;4.07;100.00;100379.34;5007907;28;20049;-69
2023/12/01 02:28:04;;;;;;;29.13;16.45;;;;;;;3.98;100.00;100356.69;5008165;28;20041;-64
2023/12/01 02:30:30;;;;;;;24.80;16.00;;;;;;;4.07;100.00;100362.34;5008141;28;20038;-65
2023/12/01 02:32:55;;;;;;;29.27;18.88;;;;;;;4.02;100.00;100377.38;5007990;28;20064;-65
2023/12/01 02:35:22;;;;;;;29.13;17.20;;;;;;;3.93;100.00;100368.28;5008142;28;20117;-65
2023/12/01 02:37:47;;;;;;;27.63;16.85;;;;;;;3.91;100.00;100355.41;5007941;28;20508;-63
2023/12/01 02:40:16;;;;;;;23.35;15.75;;;;;;;4.03;100.00;100376.59;5007955;28;20049;-65
2023/12/01 02:42:46;;;;;;;24.02;15.55;;;;;;;3.98;100.00;100354.13;5007877;28;20044;-65
2023/12/01 02:45:12;;;;;;;24.08;14.82;;;;;;;3.75;100.00;100342.47;5008674;28;20034;-65
2023/12/01 02:47:37;;;;;;;23.67;14.85;;;;;;;3.56;100.00;100366.84;4989051;28;20507;-65
2023/12/01 02:50:03;;;;;;;25.60;16.17;;;;;;;3.49;100.00;100364.69;4989389;28;20033;-64
2023/12/01 02:52:28;;;;;;;25.95;18.23;;;;;;;3.47;100.00;100344.19;4989133;28;20414;-68
2023/12/01 02:54:54;;;;;;;27.45;16.30;;;;;;;3.62;100.00;100354.47;4988771;28;20050;-65
2023/12/01 02:57:21;;;;;;;26.10;16.48;;;;;;;3.69;100.00;100351.53;4988411;28;20145;-68
2023/12/01 02:59:46;;;;;;;25.33;15.43;;;;;;;3.82;100.00;100350.59;4987911;28;20034;-66
2023/12/01 03:02:12;;;;;;;30.25;16.05;;;;;;;3.82;100.00;100344.63;4988881;28;20038;-66
2023/12/01 03:04:37;;;;;;;26.38;15.95;;;;;;;3.76;100.00;100342.56;4990457;28;20113;-64
2023/12/01 03:07:04;;;;;;;24.60;16.15;;;;;;;3.76;100.00;100339.16;5000095;28;20492;-65
2023/12/01 03:09:29;;;;;;;26.02;16.58;;;;;;;3.80;100.00;100342.00;4988107;28;20043;-64
2023/12/01 03:11:55;;;;;;;26.50;16.90;;;;;;;3.31;100.00;100285.31;4988072;28;20516;-65
2023/12/01 03:14:22;;;;;;;27.30;17.05;;;;;;;3.43;100.00;100306.50;4990580;28;20120;-64
2023/12/01 03:16:48;;;;;;;28.27;16.95;;;;;;;3.71;100.00;100327.00;4990447;28;20638;-65
2023/12/01 03:19:14;;;;;;;32.88;19.27;;;;;;;3.72;100.00;100332.97;4990686;28;20058;-64
2023/12/01 03:21:39;;;;;;;29.48;18.25;;;;;;;3.57;100.00;100315.03;4990389;28;20100;-66
2023/12/01 03:24:09;;;;;;;31.00;18.58;;;;;;;3.31;100.00;100263.22;4992136;28;20069;-64
2023/12/01 03:26:35;;;;;;;32.05;19.70;;;;;;;3.77;100.00;100325.59;4994107;28;20100;-64
2023/12/01 03:29:01;;;;;;;33.75;18.70;;;;;;;3.78;100.00;100325.69;4993951;28;20050;-64
2023/12/01 03:31:27;;;;;;;32.78;19.85;;;;;;;3.75;100.00;100332.28;4993574;28;20041;-64
2023/12/01 03:33:52;;;;;;;32.58;16.73;;;;;;;3.10;100.00;100232.16;4994222;28;20026;-63
2023/12/01 03:36:18;;;;;;;31.23;19.77;;;;;;;3.70;100.00;100345.66;4993822;28;20122;-63
2023/12/01 03:38:43;;;;;;;34.13;18.92;;;;;;;3.51;100.00;100319.75;4993951;28;20054;-64
2023/12/01 03:41:09;;;;;;;34.90;18.65;;;;;;;3.65;100.00;100325.69;5007889;28;20485;-65
2023/12/01 03:43:34;;;;;;;30.23;18.00;;;;;;;3.60;100.00;100337.31;4994074;28;20127;-71
2023/12/01 03:46:00;;;;;;;36.38;20.25;;;;;;;3.56;100.00;100331.13;4993598;28;20106;-65
2023/12/01 03:48:26;;;;;;;33.42;19.92;;;;;;;3.54;100.00;100327.59;4993470;28;20029;-66
2023/12/01 03:50:51;;;;;;;33.28;19.10;;;;;;;2.98;100.00;100226.28;4993088;28;20146;-65
2023/12/01 03:53:17;;;;;;;33.35;18.08;;;;;;;3.35;100.00;100300.94;4993470;28;20050;-65
2023/12/01 03:55:43;;;;;;;31.17;18.08;;;;;;;3.43;100.00;100311.59;4993516;28;20416;-64
2023/12/01 03:58:10;;;;;;;29.55;17.48;;;;;;;3.38;100.00;100308.75;4993266;28;20022;-62
2023/12/01 04:00:37;;;;;;;38.55;21.52;;;;;;;3.40;100.00;100319.97;4993375;28;20033;-65
2023/12/01 04:03:02;;;;;;;31.17;18.33;;;;;;;3.31;100.00;100303.19;4993702;28;20031;-64
2023/12/01 04:05:28;;;;;;;41.88;21.73;;;;;;;3.35;100.00;100323.00;4993716;28;20040;-64
2023/12/01 04:07:54;;;;;;;33.13;19.48;;;;;;;3.33;100.00;100316.94;4993247;28;20030;-70
2023/12/01 04:10:19;;;;;;;45.13;24.70;;;;;;;3.27;100.00;100309.75;5008566;28;20088;-65
2023/12/01 04:12:46;;;;;;;43.53;23.00;;;;;;;3.27;100.00;100311.44;4992937;28;20030;-65
2023/12/01 04:15:16;;;;;;;45.17;22.73;;;;;;;2.63;100.00;100209.59;4993357;28;20034;-65
2023/12/01 04:17:43;;;;;;;31.25;18.23;;;;;;;2.83;100.00;100242.38;4997184;28;20088;-65
2023/12/01 04:20:25;;;;;;;30.38;17.23;;;;;;;3.12;100.00;100311.34;5012621;28;20785;-64
2023/12/01 04:22:52;;;;;;;30.25;17.35;;;;;;;3.19;100.00;100329.69;5012887;28;20040;-64
2023/12/01 04:25:18;;;;;;;34.05;18.13;;;;;;;3.03;100.00;100306.53;5012236;28;20092;-63
2023/12/01 04:27:47;;;;;;;33.75;18.85;;;;;;;3.10;100.00;100328.19;5012503;28;20058;-64
2023/12/01 04:30:16;;;;;;;38.13;19.77;;;;;;;2.83;100.00;100279.72;5012615;28;20030;-65
2023/12/01 04:32:52;;;;;;;36.43;20.40;;;;;;;2.99;100.00;100309.66;5012219;28;20490;-65
2023/12/01 04:35:23;;;;;;;36.80;18.40;;;;;;;3.10;100.00;100331.63;5011406;28;20353;-64
2023/12/01 04:37:49;;;;;;;32.40;17.23;;;;;;;3.11;100.00;100322.31;5011666;28;20040;-63
2023/12/01 04:40:15;;;;;;;32.00;17.77;;;;;;;2.63;100.00;100242.75;5011976;28;20112;-64
2023/12/01 04:42:44;;;;;;;33.60;17.45;;;;;;;3.16;100.00;100326.03;5009799;28;20101;-68
2023/12/01 04:45:14;;;;;;;32.45;17.42;;;;;;;3.17;100.00;100326.13;5011687;28;20116;-67
2023/12/01 04:47:43;;;;;;;36.65;17.55;;;;;;;3.14;100.00;100309.75;5012033;28;20021;-63
2023/12/01 04:50:13;;;;;;;29.67;17.02;;;;;;;3.30;100.00;100348.25;5011898;28;20154;-65
2023/12/01 04:52:43;;;;;;;30.80;17.90;;;;;;;3.14;100.00;100315.75;5011772;28;20025;-66
2023/12/01 04:55:11;;;;;;;30.52;18.45;;;;;;;3.33;100.00;100339.91;5012095;28;20470;-67
2023/12/01 04:57:39;;;;;;;32.97;18.25;;;;;;;3.26;100.00;100324.97;5010904;28;20041;-68
2023/12/01 05:00:22;;;;;;;31.67;17.95;;;;;;;3.18;100.00;100334.69;5009203;28;20038;-66
2023/12/01 05:02:59;;;;;;;29.88;17.98;;;;;;;3.22;100.00;100351.94;5010153;28;20034;-64
2023/12/01 05:05:27;;;;;;;37.35;20.42;;;;;;;2.84;100.00;100268.75;5010885;28;20038;-68
2023/12/01 05:07:57;;;;;;;35.00;19.85;;;;;;;3.24;100.00;100346.16;5010057;28;20115;-66
2023/12/01 05:10:24;;;;;;;35.63;19.20;;;;;;;3.20;100.00;100348.41;5010796;28;20025;-71
2023/12/01 05:12:51;;;;;;;36.95;19.23;;;;;;;3.20;100.00;100346.75;5009034;28;20455;-65
2023/12/01 05:15:18;;;;;;;36.60;20.48;;;;;;;3.22;100.00;100326.44;4999216;28;20144;-65
2023/12/01 05:17:50;;;;;;;37.25;20.58;;;;;;;3.14;100.00;100318.31;5010958;28;20109;-66
2023/12/01 05:20:17;;;;;;;37.33;21.63;;;;;;;3.23;100.00;100334.19;4998698;28;20033;-66
2023/12/01 05:22:49;;;;;;;38.08;20.65;;;;;;;3.03;100.00;100293.78;5010887;28;20030;-65
2023/12/01 05:25:16;;;;;;;34.58;19.63;;;;;;;3.21;100.00;100339.97;5026594;28;20029;-66
2023/12/01 05:27:52;;;;;;;33.92;19.20;;;;;;;3.19;100.00;100332.22;5011685;28;20053;-65
2023/12/01 05:30:20;;;;;;;39.45;20.65;;;;;;;3.24;100.00;100332.53;5011268;28;20104;-71
2023/12/01 05:32:49;;;;;;;39.20;22.25;;;;;;;3.29;100.00;100336.25;5011015;28;20026;-67
2023/12/01 05:35:16;;;;;;;39.17;21.15;;;;;;;3.20;100.00;100326.34;5011190;28;20037;-65
2023/12/01 05:37:53;;;;;;;36.88;21.13;;;;;;;3.29;100.00;100328.59;5011154;28;20032;-66
2023/12/01 05:40:21;;;;;;;34.38;21.15;;;;;;;3.13;100.00;100307.97;4993493;28;20418;-64
2023/12/01 05:42:48;;;;;;;34.92;20.60;;;;;;;3.31;100.00;100324.47;5011056;28;20500;-68
2023/12/01 05:45:15;;;;;;;32.38;19.88;;;;;;;3.36;100.00;100333.28;5011158;28;20030;-64
2023/12/01 05:47:44;;;;;;;34.03;18.83;;;;;;;3.38;100.00;100321.53;5003977;28;20030;-65
2023/12/01 05:50:17;;;;;;;32.47;19.20;;;;;;;3.41;100.00;100318.28;5005022;28;20030;-63
2023/12/01 05:52:45;;;;;;;32.63;19.23;;;;;;;3.24;100.00;100297.69;5008028;28;20040;-65
2023/12/01 05:55:16;;;;;;;35.08;18.25;;;;;;;3.30;100.00;100309.97;5006506;28;20567;-64
2023/12/01 05:57:49;;;;;;;36.10;19.50;;;;;;;3.11;100.00;100284.06;5008878;28;20034;-67
2023/12/01 06:00:18;;;;;;;35.17;20.38;;;;;;;3.26;100.00;100307.97;5009968;28;20037;-68
2023/12/01 06:03:07;;;;;;;32.63;19.25;;;;;;;3.23;100.00;100311.22;5010943;28;20080;-68
2023/12/01 06:05:34;;;;;;;34.60;18.70;;;;;;;3.17;100.00;100313.38;5010305;28;20092;-66
2023/12/01 06:08:03;;;;;;;37.40;19.77;;;;;;;2.99;100.00;100297.78;4995625;28;20069;-67
2023/12/01 06:10:31;;;;;;;37.60;20.52;;;;;;;3.06;100.00;100324.56;5004804;28;20515;-67
2023/12/01 06:12:58;;;;;;;35.20;20.48;;;;;;;3.14;100.00;100332.72;5007290;28;20095;-66
2023/12/01 06:15:29;;;;;;;35.13;19.55;;;;;;;3.04;100.00;100308.28;5008536;28;20026;-66
2023/12/01 06:17:57;;;;;;;35.95;19.52;;;;;;;3.04;100.00;100319.38;5008164;28;20133;-67
2023/12/01 06:20:23;;;;;;;31.63;18.38;;;;;;;3.09;100.00;100306.94;5008005;28;20095;-66
2023/12/01 06:22:57;;;;;;;37.70;20.15;;;;;;;3.04;100.00;100291.31;5008054;28;20034;-67
2023/12/01 06:25:27;;;;;;;33.90;19.73;;;;;;;3.16;100.00;100308.19;5014212;28;20038;-70
2023/12/01 06:28:02;;;;;;;40.00;24.35;;;;;;;3.18;100.00;100312.59;5011147;28;20061;-67
2023/12/01 06:30:33;;;;;;;49.15;32.42;;;;;;;3.08;100.00;100285.63;5007961;28;20104;-65
2023/12/01 06:33:00;;;;;;;35.50;21.42;;;;;;;2.21;100.00;100138.16;5007849;28;20045;-66
2023/12/01 06:35:28;;;;;;;50.90;28.13;;;;;;;3.17;100.00;100322.72;5007643;28;20025;-65
2023/12/01 06:37:53;;;;;;;40.97;26.58;;;;;;;3.23;100.00;100330.75;5007633;28;20092;-66
2023/12/01 06:40:20;;;;;;;41.67;27.38;;;;;;;3.30;100.00;100315.06;5010284;28;20133;-67
2023/12/01 06:42:54;;;;;;;51.28;27.27;;;;;;;3.39;100.00;100317.31;4980411;28;20069;-67
2023/12/01 06:45:23;;;;;;;45.22;26.05;;;;;;;3.42;100.00;100319.19;5010223;28;20084;-66
2023/12/01 06:47:50;;;;;;;44.30;25.63;;;;;;;3.34;100.00;100308.47;5008860;28;20029;-67
2023/12/01 06:50:18;;;;;;;76.50;40.88;;;;;;;2.91;100.00;100242.84;5008781;28;20121;-68
2023/12/01 06:52:47;;;;;;;88.65;44.78;;;;;;;3.39;100.00;100333.50;4997780;28;20034;-66
2023/12/01 06:55:12;;;;;;;55.20;30.85;;;;;;;3.38;100.00;100336.84;5010028;28;20076;-65
2023/12/01 06:57:42;;;;;;;44.70;25.38;;;;;;;3.24;100.00;100345.28;5010273;28;20034;-66
2023/12/01 07:00:09;;;;;;;37.72;21.30;;;;;;;2.75;100.00;100285.22;5013224;28;20029;-65
2023/12/01 07:02:38;;;;;;;38.25;21.42;;;;;;;3.08;100.00;100344.28;5013965;28;20065;-66
2023/12/01 07:05:08;;;;;;;41.00;24.17;;;;;;;3.03;100.00;100315.06;5028753;28;20029;-67
2023/12/01 07:07:37;;;;;;;36.38;22.45;;;;;;;3.33;100.00;100342.44;5013922;28;20034;-65
2023/12/01 07:10:05;;;;;;;34.25;20.60;;;;;;;3.29;100.00;100332.81;5013685;28;20029;-66
2023/12/01 07:12:30;;;;;;;28.70;18.23;;;;;;;3.42;100.00;100331.94;5013897;28;20116;-69
2023/12/01 07:15:20;;;;;;;31.38;18.58;;;;;;;3.46;100.00;100328.78;5013735;28;20117;-67
2023/12/01 07:17:49;;;;;;;36.53;20.30;;;;;;;2.85;100.00;100225.50;5011019;28;20042;-66
2023/12/01 07:20:14;;;;;;;33.30;19.80;;;;;;;3.52;100.00;100326.63;5011329;28;20036;-65
2023/12/01 07:22:42;;;;;;;34.15;19.70;;;;;;;3.01;100.00;100223.94;5011249;28;20041;-66
2023/12/01 07:25:10;;;;;;;35.55;19.73;;;;;;;3.59;100.00;100307.44;5010827;28;20036;-66
2023/12/01 07:27:40;;;;;;;31.38;18.80;;;;;;;3.01;100.00;100206.06;5010597;28;20053;-66
2023/12/01 07:30:06;;;;;;;32.70;19.08;;;;;;;3.55;100.00;100284.31;5010996;28;20033;-69
2023/12/01 07:32:33;;;;;;;44.60;26.48;;;;;;;3.74;100.00;100303.31;5010925;28;20034;-63
2023/12/01 07:34:58;;;;;;;36.65;20.92;;;;;;;3.76;100.00;100316.16;5011228;28;20068;-66
2023/12/01 07:37:24;;;;;;;49.85;27.75;;;;;;;3.91;100.00;100319.66;5010630;28;20046;-65
2023/12/01 07:39:50;;;;;;;44.17;26.65;;;;;;;4.05;100.00;100311.16;5011235;28;20057;-64
2023/12/01 07:42:16;;;;;;;35.13;21.98;;;;;;;3.56;100.00;100221.34;5010431;28;20480;-69
2023/12/01 07:44:41;;;;;;;47.15;26.50;;;;;;;4.14;100.00;100318.50;5010830;28;20026;-69
2023/12/01 07:47:08;;;;;;;47.75;26.35;;;;;;;4.17;100.00;100323.78;5010755;28;20034;-65
2023/12/01 07:49:35;;;;;;;41.88;24.52;;;;;;;4.17;100.00;100323.78;5012429;28;20038;-72
2023/12/01 07:52:06;;;;;;;39.53;24.73;;;;;;;4.23;100.00;100335.19;5013199;28;20030;-63
2023/12/01 07:54:33;;;;;;;44.53;27.67;;;;;;;3.32;100.00;100179.94;5013083;28;20029;-65
2023/12/01 07:56:58;;;;;;;42.67;23.52;;;;;;;4.04;100.00;100314.50;5012905;28;20041;-70
2023/12/01 07:59:24;;;;;;;39.00;22.90;;;;;;;4.30;100.00;100339.84;5013152;28;20021;-69
2023/12/01 08:01:49;;;;;;;42.22;24.00;;;;;;;4.40;100.00;100342.19;5012831;28;20037;-65
2023/12/01 08:04:15;;;;;;;39.55;23.25;;;;;;;3.95;100.00;100244.09;5028240;28;20480;-65
2023/12/01 08:06:41;;;;;;;41.42;23.75;;;;;;;4.05;100.00;100272.84;5012612;28;20451;-65
2023/12/01 08:09:09;;;;;;;37.40;23.00;;;;;;;4.51;100.00;100347.91;5012827;28;20025;-65
2023/12/01 08:11:34;;;;;;;39.75;26.00;;;;;;;4.58;100.00;100338.97;5010406;28;20033;-66
2023/12/01 08:14:03;;;;;;;41.42;26.95;;;;;;;4.50;100.00;100324.03;5002012;28;20172;-66
2023/12/01 08:16:29;;;;;;;42.08;25.08;;;;;;;4.31;100.00;100290.50;5012461;28;20065;-66
2023/12/01 08:18:58;;;;;;;39.85;23.52;;;;;;;4.68;100.00;100347.22;5012503;28;20037;-66
2023/12/01 08:21:24;;;;;;;37.90;23.83;;;;;;;4.79;100.00;100347.88;5012118;28;20493;-66
2023/12/01 08:23:49;;;;;;;37.10;24.25;;;;;;;4.87;100.00;100343.19;5012647;28;20037;-65
2023/12/01 08:26:15;;;;;;;144.70;80.25;;;;;;;4.82;100.00;100303.69;5012352;28;20053;-65
2023/12/01 08:28:41;;;;;;;48.00;30.88;;;;;;;5.03;100.00;100327.03;5012616;28;20113;-72
2023/12/01 08:31:06;;;;;;;44.78;30.52;;;;;;;5.00;100.00;100309.84;5012036;28;20037;-65
2023/12/01 08:33:35;;;;;;;37.38;25.70;;;;;;;5.16;100.00;100316.72;5012607;28;20026;-66
2023/12/01 08:36:01;;;;;;;35.60;21.35;;;;;;;5.17;100.00;100313.38;5012364;28;20028;-66
2023/12/01 08:38:27;;;;;;;34.90;22.20;;;;;;;5.29;100.00;100320.84;5011906;28;20427;-65
2023/12/01 08:40:52;;;;;;;32.72;20.35;;;;;;;5.28;100.00;100308.84;5012223;28;20026;-66
2023/12/01 08:43:19;;;;;;;31.25;20.58;;;;;;;5.02;100.00;100236.63;5012258;28;20053;-64
2023/12/01 08:45:44;;;;;;;31.27;20.77;;;;;;;5.75;100.00;100327.59;5012079;28;20028;-72
2023/12/01 08:48:10;;;;;;;30.98;20.40;;;;;;;5.89;100.00;100322.34;5012428;28;20108;-66
2023/12/01 08:50:35;;;;;;;33.42;21.88;;;;;;;5.87;100.00;100311.13;5011535;28;20030;-66
2023/12/01 08:53:02;;;;;;;30.58;19.58;;;;;;;5.99;100.00;100327.19;5011501;28;20439;-66
2023/12/01 08:55:28;;;;;;;30.48;20.05;;;;;;;6.18;100.00;100323.03;5011516;28;20451;-65
2023/12/01 08:57:53;;;;;;;36.35;21.75;;;;;;;6.27;100.00;100323.53;5011669;28;20030;-65
2023/12/01 09:00:23;;;;;;;30.17;20.15;;;;;;;6.39;100.00;100329.28;5012065;28;20014;-66
2023/12/01 09:02:49;;;;;;;31.92;20.88;;;;;;;6.51;100.00;100335.84;5012019;28;20026;-69
2023/12/01 09:05:15;;;;;;;32.72;19.05;;;;;;;6.62;100.00;100327.88;5011719;28;20037;-63
2023/12/01 09:07:40;;;;;;;27.77;19.67;;;;;;;6.70;100.00;100312.00;5011542;28;20059;-66
2023/12/01 09:10:06;;;;;;;29.73;19.05;;;;;;;6.67;100.00;100322.06;5011469;28;20026;-67
2023/12/01 09:12:32;;;;;;;28.20;18.38;;;;;;;6.60;100.00;100319.25;5011551;28;20534;-62
2023/12/01 09:14:57;;;;;;;28.50;18.55;;;;;;;6.67;100.00;100324.66;5011524;28;20136;-64
2023/12/01 09:17:23;;;;;;;28.58;19.63;;;;;;;6.24;100.00;100216.56;5002111;28;20042;-66
2023/12/01 09:19:48;;;;;;;25.27;18.10;;;;;;;6.78;100.00;100308.13;4992420;28;20030;-66
2023/12/01 09:22:14;;;;;;;26.27;17.10;;;;;;;6.79;100.00;100295.38;4991987;28;20034;-66
2023/12/01 09:24:39;;;;;;;29.95;19.10;;;;;;;6.85;100.00;100296.47;4992260;28;20034;-66
2023/12/01 09:27:05;;;;;;;29.95;19.23;;;;;;;6.90;100.00;100290.78;4992398;28;20425;-67
2023/12/01 09:29:30;;;;;;;29.23;18.98;;;;;;;6.96;100.00;100288.47;4992685;28;20038;-67
2023/12/01 09:31:56;;;;;;;27.00;18.08;;;;;;;6.53;100.00;100188.91;4991873;28;20528;-66
2023/12/01 09:34:41;;;;;;;26.95;19.75;;;;;;;7.18;100.00;100283.50;5007279;28;20026;-66
2023/12/01 09:37:06;;;;;;;35.75;20.70;;;;;;;7.26;100.00;100280.50;4969773;28;20047;-66
2023/12/01 09:39:32;;;;;;;31.02;19.65;;;;;;;6.77;100.00;100183.22;4970014;28;20543;-67
2023/12/01 09:41:57;;;;;;;31.45;19.88;;;;;;;7.26;100.00;100249.69;4969994;28;20039;-67
2023/12/01 09:44:23;;;;;;;28.95;20.08;;;;;;;7.25;100.00;100239.34;4969943;28;20031;-69
2023/12/01 09:46:52;;;;;;;26.73;18.92;;;;;;;7.36;100.00;100237.28;4969866;28;20039;-66
2023/12/01 09:49:19;;;;;;;30.63;18.55;;;;;;;7.53;100.00;100223.50;4969808;28;20166;-67
2023/12/01 09:51:44;;;;;;;29.40;19.48;;;;;;;7.41;100.00;100167.34;4969664;28;20528;-66
2023/12/01 09:54:10;;;;;;;28.33;18.67;;;;;;;8.02;100.00;100231.63;4969891;28;20030;-65
2023/12/01 09:56:35;;;;;;;29.02;18.33;;;;;;;7.86;100.00;100204.38;4969848;28;20122;-67
2023/12/01 09:59:01;;;;;;;24.70;17.70;;;;;;;8.07;100.00;100220.75;4969799;28;20050;-67
2023/12/01 10:01:27;;;;;;;23.27;16.90;;;;;;;8.08;100.00;100231.91;4969652;28;20138;-67
2023/12/01 10:03:53;;;;;;;24.98;17.27;;;;;;;8.13;100.00;100219.25;4969504;28;20118;-72
2023/12/01 10:06:19;;;;;;;28.45;19.15;;;;;;;8.17;100.00;100211.69;4937409;28;20185;-67
2023/12/01 10:08:45;;;;;;;29.63;19.90;;;;;;;8.33;100.00;100217.50;4986309;28;20035;-66
2023/12/01 10:11:21;;;;;;;30.30;19.23;;;;;;;8.37;100.00;100222.84;4991612;28;20026;-66
2023/12/01 10:13:51;;;;;;;35.00;18.73;;;;;;;8.40;100.00;100209.25;4991683;28;20396;-66
2023/12/01 10:16:17;;;;;;;24.77;17.35;;;;;;;8.47;100.00;100187.25;4957734;28;20058;-66
2023/12/01 10:18:59;;;;;;;24.48;17.42;;;;;;;8.55;100.00;100194.47;4991738;28;20038;-66
2023/12/01 10:21:48;;;;;;;24.08;16.98;;;;;;;8.82;100.00;100218.66;4969258;28;20053;-66
2023/12/01 10:24:20;;;;;;;28.52;17.70;;;;;;;9.00;100.00;100221.09;4969572;28;20101;-66
2023/12/01 10:26:46;;;;;;;26.17;17.45;;;;;;;9.14;100.00;100226.78;4969070;28;20058;-66
2023/12/01 10:29:27;;;;;;;25.48;17.20;;;;;;;9.23;100.00;100220.28;4969519;28;20039;-66
2023/12/01 10:31:53;;;;;;;26.65;17.33;;;;;;;9.07;100.00;100200.78;4969385;28;20134;-67
2023/12/01 10:34:19;;;;;;;26.73;18.08;;;;;;;9.17;100.00;100206.28;4971687;28;20491;-67
2023/12/01 10:36:45;;;;;;;29.58;17.77;;;;;;;9.12;100.00;100207.81;4973349;28;20097;-66
2023/12/01 10:39:12;;;;;;;26.50;17.85;;;;;;;9.10;100.00;100179.44;4973305;28;20043;-65
2023/12/01 10:41:41;;;;;;;28.15;17.90;;;;;;;8.99;100.00;100124.06;4973408;28;20030;-67
2023/12/01 10:44:07;;;;;;;28.15;18.92;;;;;;;9.35;100.00;100170.06;4973292;28;20034;-70
2023/12/01 10:46:35;;;;;;;28.27;18.27;;;;;;;9.15;100.00;100117.81;4973292;28;20049;-66
2023/12/01 10:49:04;;;;;;;26.65;17.38;;;;;;;9.65;100.00;100190.03;4973296;28;20489;-66
2023/12/01 10:51:30;;;;;;;25.77;18.07;;;;;;;9.70;100.00;100183.34;4975659;28;20105;-68
2023/12/01 10:53:58;;;;;;;28.90;19.70;;;;;;;9.60;100.00;100161.50;4995156;28;20173;-66
2023/12/01 10:56:28;;;;;;;26.10;17.33;;;;;;;9.63;100.00;100158.16;4995159;28;20034;-66
2023/12/01 10:58:58;;;;;;;27.35;18.42;;;;;;;9.88;100.00;100177.94;4995112;28;20038;-64
2023/12/01 11:01:24;;;;;;;;;;;;;;;9.84;100.00;100171.81;4995452;28;20478;-66
2023/12/01 11:03:52;;;;;;;26.80;18.48;;;;;;;9.79;100.00;100157.88;4994782;28;19926;-67
2023/12/01 11:06:31;;;;;;;27.15;17.17;;;;;;;9.94;100.00;100170.41;4995089;28;20030;-66
2023/12/01 11:09:28;;;;;;;26.50;17.25;;;;;;;9.91;100.00;100166.88;4995034;28;20100;-67
2023/12/01 11:12:12;;;;;;;25.27;17.52;;;;;;;9.94;100.00;100173.00;4994389;28;20080;-67